Time;durP1;ratioP1;P1;durP2;ratioP2;P2;SDS_P1;SDS_P2;PMS_P1;PMS_P2;Temp;Humidity;BMP_temperature;BMP_pressure;BME280_temperature;BME280_humidity;BME280_pressure;Samples;Min_cycle;Max_cycle;Signal;HPM_P1;HPM_P2
2022/05/23 00:01:30;;;;;;;;;;;17.30;69.00;;;16.48;64.24;95710.53;4178395;34;19964;-88
2022/05/23 00:03:59;;;;;;;;;;;17.30;69.00;;;16.49;64.29;95705.84;4155649;34;20075;-88
2022/05/23 00:06:28;;;;;;;;;;;17.30;69.00;;;16.48;64.20;95707.78;4141893;34;19903;-88
2022/05/23 00:08:58;;;;;;;;;;;17.30;69.00;;;16.47;64.43;95710.88;4150907;34;19903;-88
2022/05/23 00:11:26;;;;;;;;;;;17.20;69.00;;;16.47;64.44;95711.69;4128141;34;20090;-88
2022/05/23 00:13:55;;;;;;;;;;;17.20;68.90;;;16.46;64.35;95710.03;4150347;34;19904;-88
2022/05/23 00:16:26;;;;;;;;;;;17.20;69.00;;;16.46;64.36;95721.09;4150433;34;20006;-87
2022/05/23 00:18:54;;;;;;;;;;;17.20;68.90;;;16.47;64.19;95719.97;4128190;34;20294;-89
2022/05/23 00:21:23;;;;;;;;;;;17.20;68.90;;;16.47;64.42;95713.63;4150700;34;19911;-89
2022/05/23 00:23:51;;;;;;;;;;;17.20;69.00;;;16.46;64.43;95710.03;4150771;34;20050;-89
2022/05/23 00:26:23;;;;;;;;;;;17.20;69.00;;;16.45;64.52;95721.44;4127726;34;20254;-89
2022/05/23 00:28:51;;;;;;;;;;;17.20;68.90;;;16.46;64.41;95714.78;4128407;34;19911;-88
2022/05/23 00:31:20;;;;;;;;;;;17.20;69.80;;;16.46;64.58;95723.88;4150662;34;19904;-89
2022/05/23 00:36:35;;;;;;;;;;;17.20;69.00;;;16.46;64.41;95734.13;4127781;34;20134;-88
2022/05/23 00:39:04;;;;;;;;;;;17.20;69.00;;;16.42;64.46;95726.47;4128111;34;19904;-88
2022/05/23 00:44:23;;;;;;;;;;;17.20;69.00;;;16.45;64.39;95725.03;4150462;34;19904;-87
2022/05/23 00:46:54;;;;;;;;;;;17.20;68.90;;;16.45;64.52;95724.19;4127558;34;19911;-88
2022/05/23 00:49:26;;;;;;;;;;;17.20;68.90;;;16.44;64.30;95728.91;4111198;34;19904;-88
2022/05/23 00:51:54;;;;;;;;;;;17.20;68.80;;;16.43;64.37;95732.81;4145909;34;19908;-87
2022/05/23 00:54:23;;;;;;;;;;;17.20;68.80;;;16.43;64.29;95735.56;4123069;34;20217;-88
2022/05/23 00:56:53;;;;;;;;;;;17.20;68.70;;;16.42;64.22;95736.72;4099846;34;20039;-88
2022/05/23 00:59:29;;;;;;;;;;;17.20;68.70;;;16.41;64.06;95738.63;4100835;34;19911;-89
2022/05/23 01:01:59;;;;;;;;;;;17.20;68.70;;;16.42;64.24;95745.00;4100977;34;19904;-88
2022/05/23 01:04:38;;;;;;;;;;;17.20;68.80;;;16.42;64.13;95739.47;4100892;34;19904;-88
2022/05/23 01:07:07;;;;;;;;;;;17.20;68.70;;;16.39;64.14;95738.13;4122882;34;20043;-88
2022/05/23 01:09:36;;;;;;;;;;;17.20;68.70;;;16.41;64.16;95752.44;4100928;34;19904;-88
2022/05/23 01:12:07;;;;;;;;;;;17.20;68.70;;;16.38;64.25;95750.34;4100944;34;20434;-88
2022/05/23 01:14:47;;;;;;;;;;;17.20;68.70;;;16.40;64.23;95753.59;4123111;34;20219;-88
2022/05/23 01:17:17;;;;;;;;;;;17.20;68.70;;;16.40;64.40;95747.25;4100556;34;20141;-88
2022/05/23 01:19:45;;;;;;;;;;;17.20;68.80;;;16.39;64.17;95746.44;4100765;34;19904;-88
2022/05/23 01:22:21;;;;;;;;;;;17.20;68.80;;;16.39;64.34;95748.38;4103356;34;19904;-88
2022/05/23 01:24:55;;;;;;;;;;;17.20;68.70;;;16.39;64.17;95740.91;4127855;34;19911;-88
2022/05/23 01:27:25;;;;;;;;;;;17.20;68.80;;;16.39;64.17;95738.13;4127247;34;20013;-88
2022/05/23 01:29:54;;;;;;;;;;;17.20;68.80;;;16.39;64.09;95740.91;4127572;34;19918;-88
2022/05/23 01:32:23;;;;;;;;;;;17.20;68.80;;;16.36;64.05;95732.44;4127684;34;20047;-88
2022/05/23 01:34:53;;;;;;;;;;;17.20;68.70;;;16.37;64.28;95726.63;4127776;34;20238;-88
2022/05/23 01:37:23;;;;;;;;;;;17.20;68.80;;;16.36;64.09;95726.94;4127482;34;20240;-88
2022/05/23 01:40:15;;;;;;;;;;;17.20;68.70;;;16.39;64.19;95731.81;4149767;34;20067;-89
2022/05/23 01:42:59;;;;;;;;;;;17.20;68.70;;;16.38;64.19;95730.19;4127885;34;19948;-89
2022/05/23 01:45:31;;;;;;;;;;;17.20;68.80;;;16.35;64.28;95719.78;4150622;34;19904;-89
2022/05/23 01:48:10;;;;;;;;;;;17.20;68.80;;;16.37;64.49;95723.84;4150270;34;19903;-89
2022/05/23 01:50:38;;;;;;;;;;;17.20;68.90;;;16.38;64.44;95727.41;4127761;34;20330;-88
2022/05/23 01:53:11;;;;;;;;;;;17.20;69.00;;;16.37;64.48;95734.06;4127548;34;19904;-88
2022/05/23 01:55:52;;;;;;;;;;;17.20;69.00;;;16.37;64.36;95723.03;4150193;34;20466;-88
2022/05/23 02:01:16;;;;;;;;;;;17.20;68.90;;;16.37;64.28;95720.28;4127597;34;19904;-88
2022/05/23 02:03:53;;;;;;;;;;;17.20;68.80;;;16.37;64.07;95725.78;4127788;34;20215;-89
2022/05/23 02:06:22;;;;;;;;;;;17.20;68.80;;;16.35;64.13;95725.28;4127406;34;19903;-88
2022/05/23 02:08:55;;;;;;;;;;;17.10;68.80;;;16.36;64.22;95732.44;4152634;34;20065;-88
2022/05/23 02:11:29;;;;;;;;;;;17.20;68.80;;;16.34;64.29;95729.19;4129987;34;20285;-89
2022/05/23 02:13:59;;;;;;;;;;;17.10;68.80;;;16.35;64.31;95733.56;4129896;34;19904;-89
2022/05/23 02:16:37;;;;;;;;;;;17.10;68.90;;;16.35;64.35;95730.81;4129601;34;20086;-89
2022/05/23 02:19:06;;;;;;;;;;;17.10;69.00;;;16.36;64.44;95732.44;4129444;34;20041;-89
2022/05/23 02:21:35;;;;;;;;;;;17.10;69.10;;;16.34;64.63;95729.19;4130061;34;20121;-89
2022/05/23 02:24:04;;;;;;;;;;;17.10;69.20;;;16.35;64.40;95730.81;4152525;34;19903;-88
2022/05/23 02:26:33;;;;;;;;;;;17.10;69.10;;;16.35;64.32;95728.06;4151453;34;20105;-88
2022/05/23 02:29:08;;;;;;;;;;;17.10;69.00;;;16.33;64.38;95727.59;4129150;34;20116;-87
2022/05/23 02:31:37;;;;;;;;;;;17.10;69.10;;;16.33;64.65;95727.59;4129104;34;19984;-87
2022/05/23 02:34:10;;;;;;;;;;;17.10;69.20;;;16.34;64.41;95712.63;4144639;34;19903;-87
2022/05/23 02:36:51;;;;;;;;;;;17.10;69.10;;;16.34;64.50;95715.38;4155774;34;19903;-87
2022/05/23 02:39:25;;;;;;;;;;;17.10;69.10;;;16.33;64.33;95705.50;4156137;34;20035;-88
2022/05/23 02:41:55;;;;;;;;;;;17.10;69.10;;;16.33;64.32;95711.00;4156209;34;19958;-88
2022/05/23 02:44:29;;;;;;;;;;;17.10;69.00;;;16.33;64.07;95711.00;4156346;34;19910;-88
2022/05/23 02:46:58;;;;;;;;;;;17.10;68.80;;;16.31;64.21;95708.56;4155443;34;20164;-88
2022/05/23 02:49:31;;;;;;;;;;;17.10;68.80;;;16.32;64.44;95714.91;4155627;34;19911;-88
2022/05/23 02:52:01;;;;;;;;;;;17.10;69.70;;;16.32;64.32;95709.38;4156131;34;20064;-88
2022/05/23 02:54:43;;;;;;;;;;;17.10;68.90;;;16.32;64.27;95698.34;4156403;34;20499;-88
2022/05/23 02:57:12;;;;;;;;;;;17.10;69.00;;;16.32;64.52;95698.34;4155870;34;19903;-89
2022/05/23 02:59:42;;;;;;;;;;;17.10;68.90;;;16.31;64.37;95696.69;4184698;33;19903;-88
2022/05/23 03:04:59;;;;;;;;;;;17.10;69.10;;;16.31;64.77;95702.22;4128952;34;20126;-87
2022/05/23 03:07:28;;;;;;;;;;;17.10;69.10;;;16.29;64.40;95704.50;4128524;34;19949;-88
2022/05/23 03:10:06;;;;;;;;;;;17.10;69.00;;;16.31;64.23;95705.00;4148312;34;19906;-88
2022/05/23 03:12:35;;;;;;;;;;;17.10;69.00;;;16.32;64.21;95707.41;4156206;34;19958;-89
2022/05/23 03:15:07;;;;;;;;;;;17.10;68.90;;;16.31;64.36;95713.28;4156029;34;20249;-88
2022/05/23 03:17:38;;;;;;;;;;;17.10;69.00;;;16.30;64.29;95706.13;4155694;34;19910;-88
2022/05/23 03:20:08;;;;;;;;;;;17.10;69.80;;;16.28;64.40;95708.38;4178173;34;19903;-89
2022/05/23 03:28:10;;;;;;;;;;;17.10;68.90;;;16.30;64.30;95719.94;4155508;34;19910;-89
2022/05/23 03:30:40;;;;;;;;;;;17.10;69.00;;;16.30;64.38;95719.94;4156048;34;19931;-88
2022/05/23 03:33:11;;;;;;;;;;;17.10;69.10;;;16.29;64.52;95718.31;4178668;34;19908;-89
2022/05/23 03:35:40;;;;;;;;;;;17.10;69.20;;;16.29;64.58;95726.59;4155923;34;19976;-88
2022/05/23 03:38:09;;;;;;;;;;;17.10;69.20;;;16.29;64.62;95718.31;4155493;34;20097;-88
2022/05/23 03:40:41;;;;;;;;;;;17.10;69.30;;;16.26;64.60;95717.00;4155718;34;20461;-89
2022/05/23 03:43:10;;;;;;;;;;;17.10;69.30;;;16.28;64.84;95720.22;4155742;34;20020;-89
2022/05/23 03:45:40;;;;;;;;;;;17.10;69.30;;;16.26;63.95;95709.50;4155778;34;19910;-88
2022/05/23 03:48:12;;;;;;;;;;;17.10;69.10;;;16.28;64.39;95706.41;4155482;34;20250;-89
2022/05/23 03:50:42;;;;;;;;;;;17.10;69.00;;;16.26;64.46;95720.56;4155787;34;19909;-89
2022/05/23 03:53:17;;;;;;;;;;;17.10;69.00;;;16.28;64.57;95713.91;4155733;34;20148;-88
2022/05/23 03:55:54;;;;;;;;;;;17.10;69.10;;;16.28;64.61;95713.91;4178456;34;19910;-89
2022/05/23 03:58:25;;;;;;;;;;;17.10;69.10;;;16.27;64.55;95710.31;4129746;34;20401;-88
2022/05/23 04:01:16;;;;;;;;;;;17.10;69.10;;;16.27;64.46;95710.31;4150825;34;19910;-89
2022/05/23 04:03:48;;;;;;;;;;;17.10;69.20;;;16.28;64.56;95714.72;4128672;34;20360;-88
2022/05/23 04:06:18;;;;;;;;;;;17.10;69.30;;;16.29;64.52;95715.53;4150445;34;19903;-88
2022/05/23 04:09:02;;;;;;;;;;;17.10;69.20;;;16.30;64.59;95722.69;4128330;34;19904;-89
2022/05/23 04:11:31;;;;;;;;;;;17.10;69.20;;;16.29;64.56;95726.59;4150669;34;19979;-88
2022/05/23 04:14:03;;;;;;;;;;;17.10;69.30;;;16.30;64.49;95720.72;4128413;34;19911;-88
2022/05/23 04:16:37;;;;;;;;;;;17.10;69.50;;;16.32;64.76;95728.72;4150589;34;19903;-88
2022/05/23 04:19:08;;;;;;;;;;;17.10;69.40;;;16.31;64.52;95725.13;4128409;34;20175;-88
2022/05/23 04:21:42;;;;;;;;;;;17.10;69.40;;;16.31;64.42;95727.09;4175815;34;19985;-88
2022/05/23 04:24:13;;;;;;;;;;;17.00;69.20;;;16.31;64.68;95727.09;4155495;34;20018;-88
2022/05/23 04:26:44;;;;;;;;;;;17.10;69.30;;;16.29;64.51;95724.63;4154862;34;20249;-89
2022/05/23 04:29:20;;;;;;;;;;;17.10;69.30;;;16.30;64.56;95728.22;4155312;34;19903;-89
2022/05/23 04:31:50;;;;;;;;;;;17.10;69.20;;;16.29;64.16;95719.09;4178217;34;19904;-88
2022/05/23 04:37:18;;;;;;;;;;;17.10;69.30;;;16.30;64.51;95714.41;4123407;34;20227;-88
2022/05/23 04:39:50;;;;;;;;;;;17.10;69.20;;;16.29;64.45;95721.06;4123666;34;20137;-88
2022/05/23 04:42:19;;;;;;;;;;;17.10;69.10;;;16.28;63.90;95719.44;4101432;34;19904;-89
2022/05/23 04:44:48;;;;;;;;;;;17.10;69.10;;;16.28;64.66;95714.72;4122978;34;20157;-88
2022/05/23 04:50:08;;;;;;;;;;;17.10;69.30;;;16.29;64.95;95715.53;4049114;34;19904;-88
2022/05/23 04:52:43;;;;;;;;;;;17.10;69.30;;;16.28;64.37;95714.72;4123334;34;19911;-89
2022/05/23 04:55:14;;;;;;;;;;;17.10;69.20;;;16.29;64.45;95715.53;4101138;34;19904;-88
2022/05/23 04:57:43;;;;;;;;;;;17.00;69.00;;;16.28;64.54;95716.66;4117866;34;20036;-88
2022/05/23 05:00:14;;;;;;;;;;;17.10;69.20;;;16.26;64.43;95715.03;4150129;34;19977;-88
2022/05/23 05:02:52;;;;;;;;;;;17.10;69.10;;;16.28;64.56;95713.91;4150250;34;20151;-89
2022/05/23 05:05:26;;;;;;;;;;;17.00;69.10;;;16.28;64.47;95713.91;4127847;34;19911;-88
2022/05/23 05:07:56;;;;;;;;;;;17.00;69.00;;;16.28;64.30;95717.47;4150326;34;19934;-88
2022/05/23 05:10:26;;;;;;;;;;;17.10;69.20;;;16.25;64.49;95716.16;4150544;34;20142;-88
2022/05/23 05:12:55;;;;;;;;;;;17.10;69.10;;;16.28;64.44;95719.44;4127995;34;20387;-89
2022/05/23 05:15:27;;;;;;;;;;;17.10;69.20;;;16.28;64.96;95719.44;4127936;34;19911;-89
2022/05/23 05:17:58;;;;;;;;;;;17.10;69.10;;;16.28;64.58;95716.66;4150205;34;20046;-87
2022/05/23 05:20:30;;;;;;;;;;;17.10;69.20;;;16.26;64.32;95715.03;4128066;34;20130;-90
2022/05/23 05:23:02;;;;;;;;;;;17.10;69.20;;;16.30;64.55;95717.16;4151016;34;20123;-90
2022/05/23 05:25:42;;;;;;;;;;;17.00;69.00;;;16.26;64.45;95717.81;4151145;34;20186;-90
2022/05/23 05:28:16;;;;;;;;;;;17.10;69.10;;;16.29;64.77;95723.81;4128575;34;19903;-90
2022/05/23 05:30:47;;;;;;;;;;;17.10;69.10;;;16.29;64.45;95726.59;4128524;34;20117;-90
2022/05/23 05:33:19;;;;;;;;;;;17.10;69.10;;;16.26;64.41;95723.31;4151105;34;20365;-90
2022/05/23 05:35:49;;;;;;;;;;;17.10;69.00;;;16.27;64.42;95726.88;4128521;34;20260;-90
2022/05/23 05:38:20;;;;;;;;;;;17.10;69.10;;;16.28;64.46;95727.72;4128483;34;19904;-90
2022/05/23 05:40:51;;;;;;;;;;;17.10;69.10;;;16.25;64.38;95727.22;4128351;34;19903;-91
2022/05/23 05:43:31;;;;;;;;;;;17.10;69.10;;;16.26;64.33;95734.38;4130416;34;19903;-90
2022/05/23 05:46:06;;;;;;;;;;;17.00;69.00;;;16.25;64.76;95727.22;4132177;34;19913;-90
2022/05/23 05:48:44;;;;;;;;;;;17.10;69.10;;;16.25;64.50;95727.22;4157923;34;19903;-89
2022/05/23 05:51:15;;;;;;;;;;;17.10;69.20;;;16.25;64.54;95727.22;4157983;34;19903;-90
2022/05/23 05:54:05;;;;;;;;;;;17.00;69.00;;;16.26;64.43;95733.56;4181591;34;20160;-90
2022/05/23 05:56:45;;;;;;;;;;;17.10;69.10;;;16.25;64.76;95731.94;4157930;34;19952;-90
2022/05/23 05:59:14;;;;;;;;;;;17.00;69.10;;;16.25;64.65;95738.25;4157898;34;19910;-90
2022/05/23 06:01:48;;;;;;;;;;;17.00;69.20;;;16.24;64.78;95736.63;4157687;34;19936;-90
2022/05/23 06:04:21;;;;;;;;;;;17.00;69.00;;;16.22;64.53;95730.59;4157763;34;19903;-90
2022/05/23 06:12:40;;;;;;;;;;;17.00;68.90;;;16.23;64.32;95737.75;4157804;34;20162;-89
2022/05/23 06:15:27;;;;;;;;;;;17.00;68.90;;;16.25;64.25;95731.94;4180549;34;19905;-90
2022/05/23 06:17:56;;;;;;;;;;;17.00;68.80;;;16.24;64.15;95730.31;4157600;34;19911;-90
2022/05/23 06:20:27;;;;;;;;;;;17.00;68.80;;;16.23;64.17;95729.47;4157611;34;19913;-90
2022/05/23 06:22:57;;;;;;;;;;;17.10;68.90;;;16.24;64.23;95738.59;4157464;34;19903;-89
2022/05/23 06:25:26;;;;;;;;;;;17.00;68.70;;;16.23;64.17;95735.00;4157356;34;20045;-90
2022/05/23 06:28:05;;;;;;;;;;;17.00;68.80;;;16.23;63.97;95743.28;4158159;34;20135;-90
2022/05/23 06:30:34;;;;;;;;;;;17.00;68.70;;;16.23;64.12;95739.72;4180439;34;19910;-90
2022/05/23 06:33:28;;;;;;;;;;;17.00;68.80;;;16.24;64.19;95752.41;4175287;34;20164;-90
2022/05/23 06:36:21;;;;;;;;;;;17.00;68.80;;;16.22;64.25;95747.19;4181202;33;19911;-91
2022/05/23 06:38:50;;;;;;;;;;;17.00;68.90;;;16.25;64.32;95746.56;4157543;34;20251;-90
2022/05/23 06:41:45;;;;;;;;;;;17.10;69.00;;;16.24;64.76;95742.16;4176394;34;20010;-90
2022/05/23 06:44:37;;;;;;;;;;;17.10;69.20;;;16.25;64.52;95751.28;4179782;34;20111;-90
2022/05/23 06:47:24;;;;;;;;;;;17.00;69.20;;;16.25;64.60;95743.78;4180361;34;20152;-90
2022/05/23 06:50:16;;;;;;;;;;;17.10;69.30;;;16.25;64.64;95754.84;4155501;33;19910;-90
2022/05/23 06:53:09;;;;;;;;;;;17.10;69.30;;;16.26;64.54;95750.16;4157373;34;19940;-90
2022/05/23 06:55:48;;;;;;;;;;;17.10;69.30;;;16.26;64.40;95753.72;4157286;34;20271;-90
2022/05/23 06:58:20;;;;;;;;;;;17.10;69.20;;;16.24;64.56;95753.19;4157180;34;19988;-90
2022/05/23 07:00:55;;;;;;;;;;;17.10;69.10;;;16.25;64.58;95749.31;4157149;34;19910;-90
2022/05/23 07:03:43;;;;;;;;;;;17.00;69.10;;;16.25;64.45;95741.03;4180045;34;19979;-90
2022/05/23 07:14:40;;;;;;;;;;;17.00;69.20;;;16.31;64.43;95732.59;4180051;34;20012;-90
2022/05/23 07:17:09;;;;;;;;;;;17.10;69.30;;;16.32;64.98;95725.94;4157166;34;20157;-90
2022/05/23 07:19:56;;;;;;;;;;;17.10;69.60;;;16.38;65.27;95735.72;4179878;34;20140;-90
2022/05/23 07:22:25;;;;;;;;;;;17.20;69.90;;;16.41;65.26;95730.34;4156923;34;19903;-90
2022/05/23 07:24:57;;;;;;;;;;;17.20;70.00;;;16.47;64.73;95721.94;4157040;34;20025;-90
2022/05/23 07:27:28;;;;;;;;;;;17.20;69.70;;;16.51;64.93;95728.44;4157006;34;20036;-91
2022/05/23 07:29:57;;;;;;;;;;;17.30;69.90;;;16.53;65.02;95731.69;4179753;34;19907;-91
2022/05/23 07:32:29;;;;;;;;;;;17.30;69.80;;;16.60;64.67;95734.81;4156967;34;19944;-91
2022/05/23 07:34:59;;;;;;;;;;;17.30;69.60;;;16.67;64.63;95731.56;4156877;34;19970;-91
2022/05/23 07:37:29;;;;;;;;;;;17.40;69.20;;;16.73;64.29;95724.75;4156619;34;19903;-91
2022/05/23 07:40:07;;;;;;;;;;;17.50;68.90;;;16.79;63.77;95723.47;4156599;34;20042;-91
2022/05/23 07:42:42;;;;;;;;;;;17.50;68.60;;;16.83;63.77;95718.94;4156741;34;19910;-90
2022/05/23 07:45:13;;;;;;;;;;;17.60;68.40;;;16.85;63.46;95719.41;4156790;34;19903;-91
2022/05/23 07:47:43;;;;;;;;;;;17.60;68.30;;;16.92;63.48;95729.97;4156584;34;19903;-91
2022/05/23 07:50:23;;;;;;;;;;;17.60;68.10;;;16.96;63.34;95721.91;4156672;34;19910;-90
2022/05/23 08:01:16;;;;;;;;;;;17.80;67.80;;;17.07;63.32;95723.22;4155709;34;19918;-90
2022/05/23 08:03:56;;;;;;;;;;;17.80;67.90;;;17.10;63.21;95728.09;4147819;34;19980;-89
2022/05/23 08:06:33;;;;;;;;;;;17.80;67.70;;;17.12;63.34;95725.78;4128054;34;19903;-89
2022/05/23 08:09:02;;;;;;;;;;;17.90;67.80;;;17.13;63.08;95724.66;4128685;34;19904;-89
2022/05/23 08:11:32;;;;;;;;;;;17.90;67.70;;;17.13;63.24;95727.44;4128560;34;19974;-88
2022/05/23 08:14:12;;;;;;;;;;;17.90;67.70;;;17.14;63.21;95726.28;4151331;34;20242;-89
2022/05/23 08:16:54;;;;;;;;;;;17.90;67.60;;;17.13;63.28;95723.88;4150873;34;19903;-89
2022/05/23 08:19:36;;;;;;;;;;;17.90;67.80;;;17.13;63.26;95729.41;4150930;34;19911;-88
2022/05/23 08:22:12;;;;;;;;;;;17.90;67.70;;;17.11;63.30;95718.63;4151145;34;19980;-89
2022/05/23 08:24:49;;;;;;;;;;;17.90;67.80;;;17.12;63.11;95716.69;4142486;34;19903;-89
2022/05/23 08:27:20;;;;;;;;;;;17.90;67.70;;;17.12;63.05;95709.19;4177778;34;19903;-89
2022/05/23 08:29:52;;;;;;;;;;;17.90;67.60;;;17.12;63.00;95711.97;4155548;34;19903;-88
2022/05/23 08:32:22;;;;;;;;;;;17.90;67.60;;;17.12;63.02;95713.94;4155727;34;19911;-88
2022/05/23 08:35:00;;;;;;;;;;;17.90;67.50;;;17.11;63.02;95715.88;4140632;34;19911;-87
2022/05/23 08:37:29;;;;;;;;;;;17.90;67.60;;;17.12;63.10;95714.72;4150016;34;19904;-87
2022/05/23 08:39:58;;;;;;;;;;;17.90;67.60;;;17.12;63.32;95708.41;4140716;34;19914;-89
2022/05/23 08:42:33;;;;;;;;;;;17.90;67.60;;;17.12;63.52;95708.41;4154914;34;19910;-88
2022/05/23 08:45:24;;;;;;;;;;;17.90;67.70;;;17.12;63.13;95706.44;4160335;34;19960;-87
2022/05/23 08:48:04;;;;;;;;;;;17.90;67.70;;;17.08;63.46;95705.47;4127289;34;19904;-87
2022/05/23 08:50:49;;;;;;;;;;;17.90;67.70;;;17.11;63.44;95718.63;4150264;34;19953;-86
2022/05/23 08:53:26;;;;;;;;;;;17.90;67.80;;;17.11;63.44;95706.78;4127578;34;19903;-87
2022/05/23 08:56:19;;;;;;;;;;;17.90;67.80;;;17.12;63.54;95719.47;4149495;34;19965;-87
2022/05/23 08:59:04;;;;;;;;;;;17.90;67.80;;;17.08;63.57;95708.25;4127516;34;19903;-87
2022/05/23 09:01:39;;;;;;;;;;;17.90;67.90;;;17.07;63.71;95705.78;4127320;34;20065;-87
2022/05/23 09:04:14;;;;;;;;;;;17.90;68.00;;;17.07;63.67;95711.31;4127234;34;20115;-87
2022/05/23 09:06:47;;;;;;;;;;;17.90;68.00;;;17.07;63.50;95714.91;4100108;34;19904;-87
2022/05/23 09:09:17;;;;;;;;;;;17.90;67.90;;;17.05;63.71;95702.53;4122711;34;20123;-86
2022/05/23 09:11:47;;;;;;;;;;;17.90;68.00;;;17.01;63.80;95710.66;4099683;34;20140;-87
2022/05/23 09:14:20;;;;;;;;;;;17.80;68.00;;;17.00;63.89;95718.16;4099745;34;19956;-86
2022/05/23 09:16:50;;;;;;;;;;;17.80;68.10;;;16.98;64.01;95709.38;4099600;34;19988;-86
2022/05/23 09:19:25;;;;;;;;;;;17.80;68.20;;;17.00;63.90;95701.56;4124563;34;19910;-86
2022/05/23 09:24:42;;;;;;;;;;;17.80;69.20;;;17.00;63.99;95695.22;4124436;34;19908;-86
2022/05/23 09:27:23;;;;;;;;;;;17.80;68.20;;;17.00;63.76;95692.44;4101573;34;20200;-86
2022/05/23 09:29:56;;;;;;;;;;;17.80;68.20;;;17.00;63.76;95697.97;4102196;34;20022;-86
2022/05/23 09:32:27;;;;;;;;;;;17.80;68.20;;;17.00;63.71;95684.97;4125399;34;20173;-86
2022/05/23 09:34:57;;;;;;;;;;;17.80;68.20;;;17.00;63.77;95692.44;4125165;34;19904;-86
2022/05/23 09:37:42;;;;;;;;;;;17.80;68.10;;;17.00;63.81;95695.22;4101570;34;19926;-87
2022/05/23 09:40:21;;;;;;;;;;;17.80;68.20;;;16.99;64.01;95688.06;4123913;34;19912;-87
2022/05/23 09:48:26;;;;;;;;;;;17.80;68.30;;;17.00;63.92;95695.22;4101935;34;20172;-87
2022/05/23 09:51:11;;;;;;;;;;;17.80;68.20;;;16.99;63.92;95691.66;4123990;34;20142;-87
2022/05/23 09:53:48;;;;;;;;;;;17.80;68.30;;;17.00;63.62;95690.50;4101732;34;20132;-87
2022/05/23 09:56:29;;;;;;;;;;;17.80;68.30;;;17.00;63.89;95692.44;4101304;34;19946;-87
2022/05/23 09:58:58;;;;;;;;;;;17.80;68.20;;;17.00;63.82;95696.03;4101792;34;20137;-87
2022/05/23 10:01:30;;;;;;;;;;;17.80;68.20;;;16.99;63.96;95693.59;4123820;34;19904;-87
2022/05/23 10:03:59;;;;;;;;;;;17.80;68.20;;;16.98;63.84;95691.94;4101613;34;19919;-87
2022/05/23 10:06:36;;;;;;;;;;;17.80;68.20;;;16.97;63.96;95684.81;4123479;34;19911;-87
2022/05/23 10:09:07;;;;;;;;;;;17.80;68.30;;;16.97;63.97;95682.06;4101626;34;19904;-87
2022/05/23 10:11:54;;;;;;;;;;;17.80;68.30;;;16.98;63.96;95680.88;4042660;34;2064748;-86
2022/05/23 10:14:23;;;;;;;;;;;17.80;68.30;;;16.97;63.93;95677.31;4102293;34;20161;-86
2022/05/23 10:16:56;;;;;;;;;;;17.80;68.20;;;16.97;63.83;95673.75;4123926;34;19904;-87
2022/05/23 10:19:31;;;;;;;;;;;17.80;68.30;;;16.97;63.91;95679.28;4122906;34;20048;-86
2022/05/23 10:22:25;;;;;;;;;;;17.80;68.30;;;16.96;63.87;95674.91;4124475;34;19983;-86
2022/05/23 10:24:57;;;;;;;;;;;17.80;68.10;;;16.96;63.84;95672.13;4105917;34;20024;-86
2022/05/23 10:27:48;;;;;;;;;;;17.80;68.10;;;16.97;63.80;95668.22;4102085;34;20113;-86
2022/05/23 10:30:20;;;;;;;;;;;17.80;68.20;;;16.97;63.60;95657.16;4101923;34;20055;-86
2022/05/23 10:32:53;;;;;;;;;;;17.80;68.10;;;16.97;63.57;95657.16;4124210;34;20072;-86
2022/05/23 10:36:36;;;;;;;;;;;17.80;68.00;;;16.96;63.69;95650.81;4102058;34;20243;-87
2022/05/23 10:42:11;;;;;;;;;;;17.80;68.10;;;16.95;63.69;95657.47;4080733;34;20081;-86
2022/05/23 10:45:17;;;;;;;;;;;17.70;68.10;;;16.93;63.80;95648.66;4101283;34;20022;-86
2022/05/23 10:48:03;;;;;;;;;;;17.70;68.10;;;16.93;63.67;95653.38;4122796;34;19915;-86
2022/05/23 10:50:37;;;;;;;;;;;17.70;68.10;;;16.93;63.73;95645.09;4101803;34;20117;-86
2022/05/23 10:53:10;;;;;;;;;;;17.70;68.10;;;16.92;64.19;95643.47;4101906;34;20352;-86
2022/05/23 10:55:41;;;;;;;;;;;17.70;68.10;;;16.91;63.72;95639.06;4101731;34;20098;-86
2022/05/23 10:58:25;;;;;;;;;;;17.70;68.10;;;16.90;63.48;95652.09;4101192;34;20239;-85
2022/05/23 11:01:00;;;;;;;;;;;17.70;68.10;;;16.88;63.75;95641.34;4123945;34;19904;-86
2022/05/23 11:03:35;;;;;;;;;;;17.70;68.30;;;16.90;63.68;95648.50;4101668;34;19977;-85
2022/05/23 11:06:09;;;;;;;;;;;17.70;68.30;;;16.90;63.85;95637.44;4101112;34;20161;-85
2022/05/23 11:08:53;;;;;;;;;;;17.70;68.20;;;16.88;63.58;95635.81;4101582;34;19984;-86
2022/05/23 11:11:32;;;;;;;;;;;17.70;68.10;;;16.90;63.69;95645.75;4101436;34;20097;-86
2022/05/23 11:14:10;;;;;;;;;;;17.70;68.20;;;16.88;63.48;95643.31;4101676;34;19953;-86
2022/05/23 11:16:46;;;;;;;;;;;17.70;68.10;;;16.88;63.70;95638.59;4123299;34;19911;-85
2022/05/23 11:19:28;;;;;;;;;;;17.70;68.10;;;16.90;63.57;95640.22;4101440;34;19904;-86
2022/05/23 11:22:03;;;;;;;;;;;17.70;68.30;;;16.88;63.63;95635.03;4101437;34;19904;-85
2022/05/23 11:24:38;;;;;;;;;;;17.70;68.00;;;16.90;63.64;95634.69;4125806;34;20052;-85
2022/05/23 11:35:45;;;;;;;;;;;17.70;68.00;;;16.87;63.69;95628.66;4155106;34;20125;-85
2022/05/23 11:38:14;;;;;;;;;;;17.70;68.00;;;16.86;63.52;95632.56;4177659;34;19903;-85
2022/05/23 11:41:27;;;;;;;;;;;17.60;68.00;;;16.86;63.74;95632.56;4177417;34;19903;-85
2022/05/23 11:43:55;;;;;;;;;;;17.60;68.00;;;16.87;63.58;95622.34;4073852;34;20175;-85
2022/05/23 11:46:27;;;;;;;;;;;17.60;68.00;;;16.87;62.74;95619.56;4163685;34;19910;-85
2022/05/23 11:49:00;;;;;;;;;;;17.70;67.90;;;16.87;63.37;95620.38;4155001;34;19903;-85
2022/05/23 11:51:41;;;;;;;;;;;17.70;67.90;;;16.87;63.33;95623.13;4154818;34;19926;-84
2022/05/23 11:54:29;;;;;;;;;;;17.70;67.90;;;16.88;63.67;95623.97;4155052;34;20128;-85
2022/05/23 11:57:30;;;;;;;;;;;17.70;68.00;;;16.88;63.69;95633.06;4153903;34;19904;-84
2022/05/23 12:00:29;;;;;;;;;;;17.70;68.10;;;16.87;63.58;95631.44;4139447;34;20335;-84
2022/05/23 12:03:10;;;;;;;;;;;17.70;67.80;;;16.89;63.17;95631.13;4123119;34;19904;-85
2022/05/23 12:05:39;;;;;;;;;;;17.70;67.90;;;16.90;63.39;95632.75;4122962;34;20094;-85
2022/05/23 12:08:29;;;;;;;;;;;17.70;67.90;;;16.90;63.46;95629.16;4100233;34;19904;-85
2022/05/23 12:11:02;;;;;;;;;;;17.60;67.70;;;16.89;63.31;95625.59;4100629;34;19992;-84
2022/05/23 12:13:46;;;;;;;;;;;17.70;67.90;;;16.88;63.45;95626.72;4100631;34;20033;-83
2022/05/23 12:16:43;;;;;;;;;;;17.70;67.80;;;16.87;63.59;95630.63;4100421;34;19912;-83
2022/05/23 12:19:33;;;;;;;;;;;17.60;67.80;;;16.85;63.39;95627.38;4100715;34;20224;-85
2022/05/23 12:22:24;;;;;;;;;;;17.60;67.90;;;16.85;63.57;95624.59;4122688;34;20043;-85
2022/05/23 12:25:26;;;;;;;;;;;17.60;67.90;;;16.84;63.92;95632.09;4123024;34;20389;-85
2022/05/23 12:28:20;;;;;;;;;;;17.60;68.00;;;16.84;63.73;95621.03;4100145;34;20119;-85
2022/05/23 12:31:11;;;;;;;;;;;17.60;68.10;;;16.85;63.65;95619.88;4078187;34;20122;-84
2022/05/23 12:34:08;;;;;;;;;;;17.60;68.00;;;16.87;63.78;95625.91;4100438;34;19908;-84
2022/05/23 12:36:39;;;;;;;;;;;17.60;68.00;;;16.86;63.51;95615.97;4168384;34;19903;-84
2022/05/23 12:39:49;;;;;;;;;;;17.60;67.90;;;16.88;63.43;95615.66;4177456;34;20028;-84
2022/05/23 12:42:33;;;;;;;;;;;17.70;67.90;;;16.88;63.40;95622.00;4177646;34;20103;-84
2022/05/23 12:45:46;;;;;;;;;;;17.70;67.80;;;16.87;63.37;95614.84;4173927;34;19903;-84
2022/05/23 12:49:08;;;;;;;;;;;17.70;67.70;;;16.87;63.34;95611.28;4123758;34;19967;-84
2022/05/23 12:52:22;;;;;;;;;;;17.70;67.80;;;16.87;63.41;95614.03;4149606;34;19903;-85
2022/05/23 12:55:20;;;;;;;;;;;17.70;67.80;;;16.86;63.39;95618.75;4127070;34;20016;-85
2022/05/23 12:58:12;;;;;;;;;;;17.60;67.60;;;16.85;63.28;95611.59;4122199;34;20363;-85
2022/05/23 13:00:44;;;;;;;;;;;17.60;67.70;;;16.84;63.36;95615.50;4159780;33;19908;-85
2022/05/23 13:03:19;;;;;;;;;;;17.60;67.60;;;16.85;63.39;95614.34;4177006;34;19949;-85